Aviation Digital Data Service (ADDS)

Output produced by METARs form (0951 UTC 23 January 2019)
found at http://aviationweather.gov/metar/data/
 
KRDG 230854Z AUTO 15005KT 10SM CLR M02/M08 A3037 RMK AO2 SLP294 T10221078 58033
KRDG 230535Z 2306/2406 17005KT P6SM BKN200 
     FM231400 19007KT P6SM OVC050 
     FM231600 19008KT P6SM OVC035 
     FM232100 18007KT P6SM -RA OVC025 WS020/20040KT 
     FM240000 18007KT 5SM -RA BR OVC010 WS020/20045KT 
     FM240300 18007KT 3SM -RA BR OVC007 WS020/20045KT
       
KABE 230535Z 2306/2406 18005KT P6SM BKN200 
     FM231400 19006KT P6SM OVC050 
     FM231600 19006KT P6SM OVC035 
     FM232100 19006KT P6SM -RA OVC025 WS020/20040KT 
     FM240000 19006KT 5SM -RA BR OVC010 WS020/20045KT 
     FM240300 19006KT 3SM -RA BR OVC007 WS020/20045KT
       
KPNE 230854Z AUTO 19005KT 10SM CLR M01/M10 A3046 RMK AO2 SLP316 T10111100 56029
KPNE 230535Z 2306/2406 18004KT P6SM BKN200 
     FM231400 20007KT P6SM OVC070 
     FM231700 20009KT P6SM OVC040 
     FM232100 19009KT P6SM OVC035 WS020/20040KT 
     FM240000 19010KT P6SM OVC025 WS020/20045KT 
     FM240400 20010KT P6SM OVC007 WS020/20045KT